Pagrindinis puslapis
METAR-TAF:

METAR-TAF

Oro uostai :

Santos Dumont oro uostas

Rio de Žaneiras, Rio de Janeiro, Brazilija

platuma: 22-54S, ilguma: 043-10W, Aukštis: 3 m

Dabartinis oras

Ataskaita buvo paskelbta 24 minutes, ne 12:00 UTC
Vėjas 3 kt iš Šiaurės
Temperatūra 22°C
Drėgmė 88%
Slėgis 1022 hPa
Matomumas 10 km arba daugiau
Mažai debesys ne aukštis 2000 ft
Su prošvaistėmis ne aukštis 10000 ft

METAR: SBRJ 041200Z 36003KT 9999 FEW020 BKN100 22/20 Q1022

Laikas: 09:24 (12:24 UTC)

Prognozė

Ataskaita buvo paskelbta 9 valandos ir 24 minutes, ne 03:00 UTC
Prognozė galioja nuo 04 metu 06 UTC su 04 metu 18 UTC
Vėjas 7 kt iš Rytų
Matomumas 10 km arba daugiau
Su prošvaistėmis ne aukštis 3000 ft
Tapsmas
nuo 04 metu 09 UTC su 04 metu 11 UTC
Mažai debesys ne aukštis 2000 ft

TAF: SBRJ 040300Z 0406/0418 09007KT 9999 BKN030 TN19/0406Z TX25/0417Z BECMG 0409/0411 FEW020 RMK PEG

Orai ataskaitas ir orų prognozės (METAR, TAF).

turimą stotys yra geltonos ir raudonos taškus žemėlapyje.

Perkelti pele per norėdami pamatyti stoties vardą.

Tada spustelėkite, norėdami matyti oro stebėjimo ir prognozės.

Norėdami pakeisti žemėlapį: spustelėkite ant žalios mygtukų su juodo kryžiaus žemyn,; žalią mygtuką su brūkšneliu, jei norite nutolinti; arba žalių rodyklių gretimoms žemėlapius.


METAR-TAF: